Terminal Aerodrome Forecast
Issued by NWS Mobile, AL

Home | Current Version | Previous Version | Text Only | Print | Product List | Glossary On
Versions: 1 2 3 4 5 6 7 8 9 10 11 12
000
FTUS44 KMOB 281725
TAFMOB
TAF
KMOB 281725Z 2818/2918 14010KT P6SM VCTS SCT015CB BKN025 OVC120
     FM290300 11006KT P6SM VCSH BKN025 OVC150
     FM291200 11003KT P6SM -TSRA OVC015CB=

USA.gov is the U.S. government's official web portal to all federal, state and local government web resources and services.